sensor_id;sensor_type;location;lat;lon;timestamp;P1;durP1;ratioP1;P2;durP2;ratioP2
17636;SDS011;8937;51.236;6.794;2022-12-19T00:02:22;18.27;;;9.03;;
17636;SDS011;8937;51.236;6.794;2022-12-19T00:10:52;19.00;;;9.90;;
17636;SDS011;8937;51.236;6.794;2022-12-19T00:19:15;20.13;;;10.20;;
17636;SDS011;8937;51.236;6.794;2022-12-19T00:27:36;21.83;;;9.63;;
17636;SDS011;8937;51.236;6.794;2022-12-19T00:35:59;20.83;;;10.03;;
17636;SDS011;8937;51.236;6.794;2022-12-19T00:44:21;17.43;;;9.60;;
17636;SDS011;8937;51.236;6.794;2022-12-19T00:52:44;20.57;;;10.43;;
17636;SDS011;8937;51.236;6.794;2022-12-19T01:01:06;21.07;;;10.63;;
17636;SDS011;8937;51.236;6.794;2022-12-19T01:09:29;21.43;;;10.27;;
17636;SDS011;8937;51.236;6.794;2022-12-19T01:17:51;18.47;;;9.73;;
17636;SDS011;8937;51.236;6.794;2022-12-19T01:26:14;17.13;;;8.80;;
17636;SDS011;8937;51.236;6.794;2022-12-19T01:34:35;18.37;;;9.23;;
17636;SDS011;8937;51.236;6.794;2022-12-19T01:42:58;17.33;;;9.43;;
17636;SDS011;8937;51.236;6.794;2022-12-19T01:51:21;18.67;;;9.37;;
17636;SDS011;8937;51.236;6.794;2022-12-19T01:59:46;18.00;;;9.00;;
17636;SDS011;8937;51.236;6.794;2022-12-19T02:08:09;17.43;;;10.10;;
17636;SDS011;8937;51.236;6.794;2022-12-19T02:16:36;19.33;;;9.77;;
17636;SDS011;8937;51.236;6.794;2022-12-19T02:25:08;15.27;;;8.47;;
17636;SDS011;8937;51.236;6.794;2022-12-19T02:33:36;18.80;;;9.73;;
17636;SDS011;8937;51.236;6.794;2022-12-19T02:42:00;19.00;;;9.53;;
17636;SDS011;8937;51.236;6.794;2022-12-19T02:50:25;18.67;;;10.17;;
17636;SDS011;8937;51.236;6.794;2022-12-19T02:58:51;19.07;;;9.30;;
17636;SDS011;8937;51.236;6.794;2022-12-19T03:07:20;16.20;;;8.73;;
17636;SDS011;8937;51.236;6.794;2022-12-19T03:15:42;14.63;;;8.20;;
17636;SDS011;8937;51.236;6.794;2022-12-19T03:24:06;17.50;;;9.00;;
17636;SDS011;8937;51.236;6.794;2022-12-19T03:32:28;15.53;;;8.63;;
17636;SDS011;8937;51.236;6.794;2022-12-19T03:40:51;16.07;;;8.87;;
17636;SDS011;8937;51.236;6.794;2022-12-19T03:49:14;18.00;;;10.63;;
17636;SDS011;8937;51.236;6.794;2022-12-19T03:57:38;16.50;;;9.13;;
17636;SDS011;8937;51.236;6.794;2022-12-19T04:06:01;15.17;;;8.03;;
17636;SDS011;8937;51.236;6.794;2022-12-19T04:14:26;18.07;;;8.63;;
17636;SDS011;8937;51.236;6.794;2022-12-19T04:22:49;19.33;;;9.43;;
17636;SDS011;8937;51.236;6.794;2022-12-19T04:31:15;20.50;;;9.90;;
17636;SDS011;8937;51.236;6.794;2022-12-19T04:39:37;13.53;;;8.47;;
17636;SDS011;8937;51.236;6.794;2022-12-19T04:47:59;14.23;;;7.37;;
17636;SDS011;8937;51.236;6.794;2022-12-19T04:56:21;13.07;;;7.67;;
17636;SDS011;8937;51.236;6.794;2022-12-19T05:04:43;17.33;;;8.40;;
17636;SDS011;8937;51.236;6.794;2022-12-19T05:13:05;14.33;;;8.30;;
17636;SDS011;8937;51.236;6.794;2022-12-19T05:21:28;14.53;;;8.20;;
17636;SDS011;8937;51.236;6.794;2022-12-19T05:29:49;15.10;;;8.20;;
17636;SDS011;8937;51.236;6.794;2022-12-19T05:38:12;13.67;;;7.43;;
17636;SDS011;8937;51.236;6.794;2022-12-19T05:46:33;15.47;;;8.40;;
17636;SDS011;8937;51.236;6.794;2022-12-19T05:54:57;12.30;;;7.23;;
17636;SDS011;8937;51.236;6.794;2022-12-19T06:03:25;13.10;;;7.90;;
17636;SDS011;8937;51.236;6.794;2022-12-19T06:11:48;14.53;;;7.57;;
17636;SDS011;8937;51.236;6.794;2022-12-19T06:20:10;14.10;;;8.23;;
17636;SDS011;8937;51.236;6.794;2022-12-19T06:28:33;15.10;;;8.00;;
17636;SDS011;8937;51.236;6.794;2022-12-19T06:36:55;12.10;;;7.17;;
17636;SDS011;8937;51.236;6.794;2022-12-19T06:45:17;13.37;;;7.63;;
17636;SDS011;8937;51.236;6.794;2022-12-19T06:53:39;11.73;;;7.27;;
17636;SDS011;8937;51.236;6.794;2022-12-19T07:02:02;11.70;;;7.07;;
17636;SDS011;8937;51.236;6.794;2022-12-19T07:10:28;9.50;;;6.47;;
17636;SDS011;8937;51.236;6.794;2022-12-19T07:18:51;12.10;;;7.33;;
17636;SDS011;8937;51.236;6.794;2022-12-19T07:27:13;10.87;;;7.03;;
17636;SDS011;8937;51.236;6.794;2022-12-19T07:35:36;13.37;;;7.23;;
17636;SDS011;8937;51.236;6.794;2022-12-19T07:43:57;10.73;;;6.87;;
17636;SDS011;8937;51.236;6.794;2022-12-19T07:52:20;10.97;;;6.43;;
17636;SDS011;8937;51.236;6.794;2022-12-19T08:00:41;11.17;;;7.00;;
17636;SDS011;8937;51.236;6.794;2022-12-19T08:09:04;12.13;;;7.40;;
17636;SDS011;8937;51.236;6.794;2022-12-19T08:17:25;11.63;;;7.10;;
17636;SDS011;8937;51.236;6.794;2022-12-19T08:25:48;10.27;;;6.60;;
17636;SDS011;8937;51.236;6.794;2022-12-19T08:34:10;8.97;;;5.97;;
17636;SDS011;8937;51.236;6.794;2022-12-19T08:42:32;13.37;;;7.43;;
17636;SDS011;8937;51.236;6.794;2022-12-19T08:50:55;11.43;;;6.87;;
17636;SDS011;8937;51.236;6.794;2022-12-19T08:59:18;11.27;;;6.77;;
17636;SDS011;8937;51.236;6.794;2022-12-19T09:07:39;13.17;;;7.73;;
17636;SDS011;8937;51.236;6.794;2022-12-19T09:16:04;9.93;;;6.47;;
17636;SDS011;8937;51.236;6.794;2022-12-19T09:24:26;10.57;;;6.30;;
17636;SDS011;8937;51.236;6.794;2022-12-19T09:32:49;10.40;;;6.43;;
17636;SDS011;8937;51.236;6.794;2022-12-19T09:41:19;10.63;;;6.57;;
17636;SDS011;8937;51.236;6.794;2022-12-19T09:49:44;8.50;;;6.10;;
17636;SDS011;8937;51.236;6.794;2022-12-19T09:58:08;13.53;;;6.97;;
17636;SDS011;8937;51.236;6.794;2022-12-19T10:06:34;10.43;;;6.50;;
17636;SDS011;8937;51.236;6.794;2022-12-19T10:14:57;8.73;;;6.13;;
17636;SDS011;8937;51.236;6.794;2022-12-19T10:23:27;9.40;;;6.37;;
17636;SDS011;8937;51.236;6.794;2022-12-19T10:31:57;11.57;;;6.10;;
17636;SDS011;8937;51.236;6.794;2022-12-19T10:40:24;10.17;;;6.07;;
17636;SDS011;8937;51.236;6.794;2022-12-19T10:48:49;9.67;;;6.37;;
17636;SDS011;8937;51.236;6.794;2022-12-19T10:57:21;8.90;;;6.10;;
17636;SDS011;8937;51.236;6.794;2022-12-19T11:05:45;11.00;;;5.87;;
17636;SDS011;8937;51.236;6.794;2022-12-19T11:14:18;8.17;;;5.23;;
17636;SDS011;8937;51.236;6.794;2022-12-19T11:22:44;9.27;;;6.10;;
17636;SDS011;8937;51.236;6.794;2022-12-19T11:31:15;8.27;;;5.37;;
17636;SDS011;8937;51.236;6.794;2022-12-19T11:39:40;10.93;;;6.97;;
17636;SDS011;8937;51.236;6.794;2022-12-19T11:48:07;12.43;;;7.13;;
17636;SDS011;8937;51.236;6.794;2022-12-19T11:56:31;9.50;;;6.33;;
17636;SDS011;8937;51.236;6.794;2022-12-19T12:05:06;8.93;;;6.47;;
17636;SDS011;8937;51.236;6.794;2022-12-19T12:13:31;7.90;;;5.43;;
17636;SDS011;8937;51.236;6.794;2022-12-19T12:22:00;10.93;;;6.97;;
17636;SDS011;8937;51.236;6.794;2022-12-19T12:30:27;11.70;;;6.60;;
17636;SDS011;8937;51.236;6.794;2022-12-19T12:38:59;10.70;;;6.87;;
17636;SDS011;8937;51.236;6.794;2022-12-19T12:47:30;9.40;;;6.30;;
17636;SDS011;8937;51.236;6.794;2022-12-19T12:55:54;9.00;;;5.77;;
17636;SDS011;8937;51.236;6.794;2022-12-19T13:04:19;9.23;;;6.07;;
17636;SDS011;8937;51.236;6.794;2022-12-19T13:12:52;9.27;;;5.87;;
17636;SDS011;8937;51.236;6.794;2022-12-19T13:21:20;9.27;;;5.80;;
17636;SDS011;8937;51.236;6.794;2022-12-19T13:29:55;9.00;;;6.13;;
17636;SDS011;8937;51.236;6.794;2022-12-19T13:38:18;10.50;;;6.07;;
17636;SDS011;8937;51.236;6.794;2022-12-19T13:46:42;8.43;;;5.97;;
17636;SDS011;8937;51.236;6.794;2022-12-19T13:55:09;11.03;;;6.20;;
17636;SDS011;8937;51.236;6.794;2022-12-19T14:03:36;8.77;;;5.83;;
17636;SDS011;8937;51.236;6.794;2022-12-19T14:11:58;10.20;;;5.63;;
17636;SDS011;8937;51.236;6.794;2022-12-19T14:20:22;8.97;;;6.10;;
17636;SDS011;8937;51.236;6.794;2022-12-19T14:28:46;7.83;;;5.50;;
17636;SDS011;8937;51.236;6.794;2022-12-19T14:37:22;8.07;;;5.23;;
17636;SDS011;8937;51.236;6.794;2022-12-19T14:45:46;9.90;;;5.67;;
17636;SDS011;8937;51.236;6.794;2022-12-19T14:54:18;9.50;;;5.67;;
17636;SDS011;8937;51.236;6.794;2022-12-19T15:02:40;8.33;;;5.70;;
17636;SDS011;8937;51.236;6.794;2022-12-19T15:11:03;7.73;;;5.60;;
17636;SDS011;8937;51.236;6.794;2022-12-19T15:19:39;8.53;;;5.40;;
17636;SDS011;8937;51.236;6.794;2022-12-19T15:28:04;8.23;;;5.73;;
17636;SDS011;8937;51.236;6.794;2022-12-19T15:36:26;7.30;;;4.87;;
17636;SDS011;8937;51.236;6.794;2022-12-19T15:44:48;6.03;;;4.90;;
17636;SDS011;8937;51.236;6.794;2022-12-19T15:53:16;6.67;;;4.73;;
17636;SDS011;8937;51.236;6.794;2022-12-19T16:01:40;6.00;;;4.23;;
17636;SDS011;8937;51.236;6.794;2022-12-19T16:10:02;7.43;;;4.63;;
17636;SDS011;8937;51.236;6.794;2022-12-19T16:18:25;4.47;;;4.07;;
17636;SDS011;8937;51.236;6.794;2022-12-19T16:26:48;6.33;;;4.33;;
17636;SDS011;8937;51.236;6.794;2022-12-19T16:35:13;5.03;;;4.27;;
17636;SDS011;8937;51.236;6.794;2022-12-19T16:43:36;7.20;;;4.50;;
17636;SDS011;8937;51.236;6.794;2022-12-19T16:51:59;4.63;;;4.17;;
17636;SDS011;8937;51.236;6.794;2022-12-19T17:00:21;7.90;;;5.17;;
17636;SDS011;8937;51.236;6.794;2022-12-19T17:08:45;5.93;;;4.73;;
17636;SDS011;8937;51.236;6.794;2022-12-19T17:17:08;8.43;;;5.23;;
17636;SDS011;8937;51.236;6.794;2022-12-19T17:25:36;5.53;;;4.37;;
17636;SDS011;8937;51.236;6.794;2022-12-19T17:33:57;5.67;;;4.53;;
17636;SDS011;8937;51.236;6.794;2022-12-19T17:42:21;5.53;;;4.50;;
17636;SDS011;8937;51.236;6.794;2022-12-19T17:50:43;7.80;;;4.10;;
17636;SDS011;8937;51.236;6.794;2022-12-19T17:59:06;8.33;;;4.53;;
17636;SDS011;8937;51.236;6.794;2022-12-19T18:07:27;8.50;;;3.90;;
17636;SDS011;8937;51.236;6.794;2022-12-19T18:15:50;4.23;;;3.63;;
17636;SDS011;8937;51.236;6.794;2022-12-19T18:24:13;5.13;;;3.80;;
17636;SDS011;8937;51.236;6.794;2022-12-19T18:32:36;5.50;;;3.60;;
17636;SDS011;8937;51.236;6.794;2022-12-19T18:40:58;5.70;;;3.77;;
17636;SDS011;8937;51.236;6.794;2022-12-19T18:49:20;5.90;;;4.10;;
17636;SDS011;8937;51.236;6.794;2022-12-19T18:57:43;4.90;;;4.23;;
17636;SDS011;8937;51.236;6.794;2022-12-19T19:06:10;4.47;;;3.57;;
17636;SDS011;8937;51.236;6.794;2022-12-19T19:14:33;4.30;;;3.67;;
17636;SDS011;8937;51.236;6.794;2022-12-19T19:22:56;6.20;;;3.97;;
17636;SDS011;8937;51.236;6.794;2022-12-19T19:31:18;4.70;;;3.80;;
17636;SDS011;8937;51.236;6.794;2022-12-19T19:39:42;4.23;;;3.83;;
17636;SDS011;8937;51.236;6.794;2022-12-19T19:48:04;5.07;;;3.50;;
17636;SDS011;8937;51.236;6.794;2022-12-19T19:56:28;4.37;;;3.97;;
17636;SDS011;8937;51.236;6.794;2022-12-19T20:04:50;4.23;;;3.13;;
17636;SDS011;8937;51.236;6.794;2022-12-19T20:13:13;5.00;;;3.67;;
17636;SDS011;8937;51.236;6.794;2022-12-19T20:21:34;5.70;;;3.70;;
17636;SDS011;8937;51.236;6.794;2022-12-19T20:29:57;7.50;;;3.47;;
17636;SDS011;8937;51.236;6.794;2022-12-19T20:38:18;8.27;;;3.90;;
17636;SDS011;8937;51.236;6.794;2022-12-19T20:46:41;4.93;;;3.63;;
17636;SDS011;8937;51.236;6.794;2022-12-19T20:55:02;5.00;;;3.30;;
17636;SDS011;8937;51.236;6.794;2022-12-19T21:03:25;4.27;;;3.50;;
17636;SDS011;8937;51.236;6.794;2022-12-19T21:11:47;4.93;;;3.43;;
17636;SDS011;8937;51.236;6.794;2022-12-19T21:20:10;3.40;;;3.10;;
17636;SDS011;8937;51.236;6.794;2022-12-19T21:28:32;3.60;;;3.20;;
17636;SDS011;8937;51.236;6.794;2022-12-19T21:36:54;4.00;;;3.20;;
17636;SDS011;8937;51.236;6.794;2022-12-19T21:45:16;3.07;;;2.83;;
17636;SDS011;8937;51.236;6.794;2022-12-19T21:53:39;2.87;;;2.67;;
17636;SDS011;8937;51.236;6.794;2022-12-19T22:02:00;6.23;;;3.20;;
17636;SDS011;8937;51.236;6.794;2022-12-19T22:10:23;3.47;;;3.17;;
17636;SDS011;8937;51.236;6.794;2022-12-19T22:18:44;3.23;;;2.90;;
17636;SDS011;8937;51.236;6.794;2022-12-19T22:27:07;3.73;;;2.40;;
17636;SDS011;8937;51.236;6.794;2022-12-19T22:35:29;3.23;;;2.37;;
17636;SDS011;8937;51.236;6.794;2022-12-19T22:43:52;2.50;;;2.30;;
17636;SDS011;8937;51.236;6.794;2022-12-19T22:52:13;2.63;;;2.40;;
17636;SDS011;8937;51.236;6.794;2022-12-19T23:00:36;2.30;;;1.80;;
17636;SDS011;8937;51.236;6.794;2022-12-19T23:08:58;1.80;;;1.70;;
17636;SDS011;8937;51.236;6.794;2022-12-19T23:17:21;2.00;;;1.90;;
17636;SDS011;8937;51.236;6.794;2022-12-19T23:25:42;1.70;;;1.60;;
17636;SDS011;8937;51.236;6.794;2022-12-19T23:34:05;2.20;;;1.57;;
17636;SDS011;8937;51.236;6.794;2022-12-19T23:42:27;1.70;;;1.60;;
17636;SDS011;8937;51.236;6.794;2022-12-19T23:50:56;1.77;;;1.60;;
17636;SDS011;8937;51.236;6.794;2022-12-19T23:59:18;1.67;;;1.57;;
